Time;durP1;ratioP1;P1;durP2;ratioP2;P2;SDS_P1;SDS_P2;PMS_P1;PMS_P2;Temp;Humidity;BMP_temperature;BMP_pressure;BME280_temperature;BME280_humidity;BME280_pressure;Samples;Min_cycle;Max_cycle;Signal;HPM_P1;HPM_P2
2022/04/14 00:02:09;;;;;;;60.78;28.85;;;14.10;83.20;;;;;;5134345;28;20495;-68
2022/04/14 00:04:35;;;;;;;54.30;27.23;;;14.10;83.50;;;;;;5134347;28;20034;-68
2022/04/14 00:07:02;;;;;;;49.03;26.65;;;14.00;83.40;;;;;;5134340;28;20065;-68
2022/04/14 00:09:28;;;;;;;55.00;26.95;;;14.00;83.80;;;;;;5134301;28;20020;-68
2022/04/14 00:11:55;;;;;;;52.70;26.77;;;13.90;83.90;;;;;;5134177;28;20053;-68
2022/04/14 00:14:21;;;;;;;50.28;26.45;;;13.80;84.00;;;;;;5134259;28;20034;-68
2022/04/14 00:16:46;;;;;;;50.65;26.05;;;13.80;84.30;;;;;;5134134;28;20028;-68
2022/04/14 00:19:12;;;;;;;48.17;25.27;;;13.80;84.20;;;;;;5134114;28;20026;-68
2022/04/14 00:21:38;;;;;;;42.30;23.23;;;13.90;84.00;;;;;;5134068;28;20091;-68
2022/04/14 00:24:04;;;;;;;48.22;25.20;;;13.90;83.60;;;;;;5134149;28;20078;-68
2022/04/14 00:26:30;;;;;;;52.75;26.65;;;13.90;83.30;;;;;;5134137;28;20027;-68
2022/04/14 00:28:56;;;;;;;48.90;25.73;;;13.90;83.30;;;;;;5133935;28;20039;-68
2022/04/14 00:31:21;;;;;;;45.30;25.00;;;14.00;83.20;;;;;;5133900;28;20035;-68
2022/04/14 00:33:47;;;;;;;45.75;24.33;;;13.90;83.20;;;;;;5134044;28;20028;-68
2022/04/14 00:36:13;;;;;;;42.28;23.48;;;13.90;83.20;;;;;;5133932;28;20020;-68
2022/04/14 00:38:38;;;;;;;46.95;25.20;;;13.90;83.20;;;;;;5133866;28;20032;-68
2022/04/14 00:41:04;;;;;;;40.72;22.65;;;13.90;83.20;;;;;;5133824;28;20034;-68
2022/04/14 00:43:31;;;;;;;37.58;21.67;;;13.90;83.20;;;;;;5133625;28;20081;-68
2022/04/14 00:45:59;;;;;;;35.78;20.17;;;13.90;84.00;;;;;;5132949;28;20023;-68
2022/04/14 00:48:25;;;;;;;37.40;20.77;;;13.90;83.00;;;;;;5133768;28;20033;-68
2022/04/14 00:50:51;;;;;;;35.38;18.85;;;13.90;82.80;;;;;;5133647;28;20031;-68
2022/04/14 00:53:16;;;;;;;36.50;20.20;;;13.80;82.70;;;;;;5132638;28;20095;-68
2022/04/14 00:55:42;;;;;;;36.60;20.42;;;13.90;83.10;;;;;;5133683;28;20023;-68
2022/04/14 00:58:08;;;;;;;37.97;21.88;;;13.90;83.10;;;;;;5133680;28;20047;-68
2022/04/14 01:00:34;;;;;;;43.83;21.90;;;13.90;82.90;;;;;;5133701;28;20035;-67
2022/04/14 01:03:00;;;;;;;38.60;20.50;;;13.90;82.90;;;;;;5133608;28;20031;-67
2022/04/14 01:05:27;;;;;;;36.47;20.23;;;13.90;82.60;;;;;;5133687;28;20024;-67
2022/04/14 01:07:56;;;;;;;65.15;18.42;;;13.90;82.20;;;;;;5133609;28;20083;-67
2022/04/14 01:10:22;;;;;;;33.28;19.52;;;13.90;82.20;;;;;;5133529;28;20464;-67
2022/04/14 01:12:47;;;;;;;40.95;20.80;;;13.80;82.30;;;;;;5133558;28;20020;-67
2022/04/14 01:15:14;;;;;;;50.78;23.33;;;13.80;82.40;;;;;;5133633;28;20079;-67
2022/04/14 01:17:40;;;;;;;51.60;20.85;;;13.80;82.90;;;;;;5133514;28;20019;-67
2022/04/14 01:20:08;;;;;;;41.38;22.02;;;13.80;83.00;;;;;;5133482;28;20038;-67
2022/04/14 01:22:42;;;;;;;46.95;23.95;;;13.70;83.00;;;;;;5133494;28;20027;-67
2022/04/14 01:25:08;;;;;;;44.22;24.25;;;13.70;83.30;;;;;;5133532;28;20051;-67
2022/04/14 01:27:34;;;;;;;43.85;23.02;;;13.60;83.30;;;;;;5133304;28;20036;-67
2022/04/14 01:30:00;;;;;;;39.15;22.20;;;13.60;83.60;;;;;;5132269;28;20035;-67
2022/04/14 01:32:26;;;;;;;38.05;21.92;;;13.60;83.60;;;;;;5133515;28;20024;-67
2022/04/14 01:34:52;;;;;;;40.40;21.63;;;13.60;83.40;;;;;;5133327;28;20018;-67
2022/04/14 01:37:18;;;;;;;45.97;23.73;;;13.60;83.20;;;;;;5133302;28;20028;-67
2022/04/14 01:39:44;;;;;;;44.92;24.90;;;13.60;83.10;;;;;;5133307;28;20053;-67
2022/04/14 01:42:10;;;;;;;49.38;24.63;;;13.50;84.00;;;;;;5133079;28;20040;-68
2022/04/14 01:44:35;;;;;;;48.85;24.50;;;13.40;84.10;;;;;;5133313;28;20023;-68
2022/04/14 01:47:02;;;;;;;52.88;26.42;;;13.30;84.90;;;;;;5133264;28;20030;-68
2022/04/14 01:49:28;;;;;;;51.60;25.50;;;13.20;85.00;;;;;;5133181;28;20045;-68
2022/04/14 01:51:54;;;;;;;49.38;25.95;;;13.20;85.30;;;;;;5133210;28;20396;-68
2022/04/14 01:54:19;;;;;;;51.80;26.70;;;13.30;85.40;;;;;;5133165;28;20020;-68
2022/04/14 01:56:46;;;;;;;61.75;26.05;;;13.30;85.70;;;;;;5132523;28;20024;-68
2022/04/14 01:59:12;;;;;;;53.60;24.23;;;13.30;85.80;;;;;;5136786;28;20024;-68
2022/04/14 02:01:38;;;;;;;64.60;24.10;;;13.20;86.40;;;;;;5136723;28;20032;-67
2022/04/14 02:04:05;;;;;;;57.92;23.83;;;13.10;85.70;;;;;;5136730;28;20026;-67
2022/04/14 02:06:31;;;;;;;66.32;25.45;;;13.00;86.30;;;;;;5136671;28;20030;-67
2022/04/14 02:08:57;;;;;;;52.20;25.42;;;13.00;86.40;;;;;;5136625;28;20114;-67
2022/04/14 02:11:23;;;;;;;50.72;25.35;;;13.10;86.40;;;;;;5135418;28;20114;-67
2022/04/14 02:13:48;;;;;;;68.53;25.25;;;13.20;86.70;;;;;;5136509;28;20032;-67
2022/04/14 02:16:15;;;;;;;74.97;24.65;;;13.20;86.50;;;;;;5136463;28;20034;-67
2022/04/14 02:18:41;;;;;;;54.97;26.52;;;13.20;86.40;;;;;;5136432;28;20102;-68
2022/04/14 02:21:06;;;;;;;52.90;25.05;;;13.20;86.30;;;;;;5136160;28;20032;-67
2022/04/14 02:23:32;;;;;;;70.60;24.33;;;13.20;86.40;;;;;;5136421;28;20030;-68
2022/04/14 02:25:58;;;;;;;59.95;25.23;;;13.20;86.90;;;;;;5136282;28;20054;-67
2022/04/14 02:28:23;;;;;;;51.60;24.85;;;13.20;86.80;;;;;;5135125;28;20024;-67
2022/04/14 02:30:49;;;;;;;51.35;24.58;;;13.20;86.60;;;;;;5136069;28;20035;-67
2022/04/14 02:33:15;;;;;;;47.90;24.55;;;13.20;86.70;;;;;;5136135;28;20024;-68
2022/04/14 02:35:41;;;;;;;65.72;23.33;;;13.20;86.60;;;;;;5136193;28;20083;-68
2022/04/14 02:38:06;;;;;;;48.72;23.58;;;13.20;86.50;;;;;;5136160;28;20045;-67
2022/04/14 02:40:32;;;;;;;63.13;23.80;;;13.20;86.20;;;;;;5135984;28;20076;-68
2022/04/14 02:42:58;;;;;;;53.58;23.55;;;13.20;86.10;;;;;;5134706;28;20119;-68
2022/04/14 02:45:25;;;;;;;47.38;24.17;;;13.20;86.10;;;;;;5135925;28;20023;-68
2022/04/14 02:47:51;;;;;;;49.10;23.27;;;13.20;86.10;;;;;;5135886;28;20054;-68
2022/04/14 02:50:18;;;;;;;51.03;24.00;;;13.20;86.00;;;;;;5135779;28;20038;-68
2022/04/14 02:52:44;;;;;;;47.17;22.92;;;13.10;86.00;;;;;;5135771;28;20015;-68
2022/04/14 02:55:09;;;;;;;58.72;22.95;;;13.10;86.00;;;;;;5134854;28;20026;-68
2022/04/14 02:57:36;;;;;;;43.83;22.35;;;13.20;86.20;;;;;;5135631;28;20384;-68
2022/04/14 03:00:05;;;;;;;43.80;22.70;;;13.10;86.90;;;;;;5135737;28;20034;-68
2022/04/14 03:02:30;;;;;;;45.85;23.65;;;13.20;85.90;;;;;;5135572;28;20015;-68
2022/04/14 03:04:56;;;;;;;43.50;22.95;;;13.20;85.90;;;;;;5135483;28;20030;-68
2022/04/14 03:07:21;;;;;;;42.25;22.73;;;13.20;86.10;;;;;;5135475;28;20031;-68
2022/04/14 03:09:48;;;;;;;40.47;22.15;;;13.20;86.10;;;;;;5134461;28;20044;-68
2022/04/14 03:12:13;;;;;;;42.80;22.85;;;13.20;86.00;;;;;;5135366;28;20019;-68
2022/04/14 03:14:39;;;;;;;43.97;23.52;;;13.20;85.90;;;;;;5135308;28;20111;-68
2022/04/14 03:17:05;;;;;;;42.97;22.92;;;13.30;86.00;;;;;;5135394;28;20396;-67
2022/04/14 03:19:30;;;;;;;41.22;22.60;;;13.30;85.80;;;;;;5135364;28;20027;-68
2022/04/14 03:21:58;;;;;;;40.40;22.08;;;13.20;85.50;;;;;;5135152;28;20043;-68
2022/04/14 03:24:23;;;;;;;81.32;22.10;;;13.20;85.30;;;;;;5135135;28;20034;-68
2022/04/14 03:26:49;;;;;;;38.45;21.52;;;13.30;85.00;;;;;;5135096;28;20083;-68
2022/04/14 03:29:15;;;;;;;40.55;21.05;;;13.20;84.70;;;;;;5134954;28;20028;-68
2022/04/14 03:31:40;;;;;;;37.08;19.83;;;13.20;84.80;;;;;;5134893;28;20035;-68
2022/04/14 03:34:06;;;;;;;37.63;20.02;;;13.20;84.90;;;;;;5134895;28;20077;-68
2022/04/14 03:36:31;;;;;;;63.15;22.45;;;13.20;84.70;;;;;;5134903;28;20047;-68
2022/04/14 03:38:57;;;;;;;49.22;19.23;;;13.20;85.40;;;;;;5134812;28;20388;-68
2022/04/14 03:41:22;;;;;;;63.00;19.73;;;13.10;84.60;;;;;;5134818;28;20028;-68
2022/04/14 03:43:48;;;;;;;49.83;19.88;;;13.10;84.50;;;;;;5134557;28;20081;-68
2022/04/14 03:46:19;;;;;;;79.03;19.52;;;13.10;84.20;;;;;;5134689;28;20076;-68
2022/04/14 03:48:48;;;;;;;76.90;20.80;;;13.10;83.80;;;;;;5134819;28;20038;-68
2022/04/14 03:51:14;;;;;;;168.27;21.17;;;13.10;83.50;;;;;;5134648;28;20046;-68
2022/04/14 03:53:41;;;;;;;71.40;20.25;;;12.90;83.50;;;;;;5134690;28;20015;-68
2022/04/14 03:56:06;;;;;;;96.22;21.80;;;12.80;83.80;;;;;;5134526;28;20047;-68
2022/04/14 03:58:32;;;;;;;139.90;22.33;;;12.70;84.20;;;;;;5134445;28;20019;-68
2022/04/14 04:00:57;;;;;;;125.70;22.92;;;12.60;84.60;;;;;;5134418;28;20028;-68
2022/04/14 04:03:23;;;;;;;108.03;19.60;;;12.60;84.90;;;;;;5134399;28;20020;-67
2022/04/14 04:05:49;;;;;;;98.47;22.77;;;12.50;85.10;;;;;;5134346;28;20384;-68
2022/04/14 04:08:14;;;;;;;69.93;23.52;;;12.50;85.30;;;;;;5134296;28;20035;-68
2022/04/14 04:10:40;;;;;;;78.88;20.48;;;12.50;86.60;;;;;;5134178;28;20053;-68
2022/04/14 04:13:06;;;;;;;64.43;20.15;;;12.50;86.20;;;;;;5133188;28;20042;-68
2022/04/14 04:15:32;;;;;;;58.50;21.38;;;12.50;86.20;;;;;;5134220;28;20043;-68
2022/04/14 04:17:58;;;;;;;54.60;21.30;;;12.50;86.30;;;;;;5134334;28;20036;-67
2022/04/14 04:20:25;;;;;;;62.33;21.67;;;12.50;86.30;;;;;;5133990;28;20089;-68
2022/04/14 04:22:50;;;;;;;48.08;20.30;;;12.50;86.30;;;;;;5134060;28;20356;-68
2022/04/14 04:25:16;;;;;;;50.53;21.40;;;12.50;86.10;;;;;;5134036;28;20038;-68
2022/04/14 04:27:42;;;;;;;41.33;19.45;;;12.50;85.90;;;;;;5133935;28;20079;-68
2022/04/14 04:30:08;;;;;;;45.08;20.75;;;12.50;86.10;;;;;;5133897;28;20041;-68
2022/04/14 04:32:35;;;;;;;41.28;20.05;;;12.50;86.20;;;;;;5133958;28;20020;-68
2022/04/14 04:35:02;;;;;;;70.20;20.42;;;12.60;86.00;;;;;;5133970;28;20027;-68
2022/04/14 04:37:28;;;;;;;49.42;19.63;;;12.50;86.20;;;;;;5133918;28;20026;-68
2022/04/14 04:39:54;;;;;;;47.67;19.98;;;12.40;85.20;;;;;;5133874;28;20016;-67
2022/04/14 04:42:20;;;;;;;49.67;19.10;;;12.40;85.30;;;;;;5133629;28;20531;-68
2022/04/14 04:44:45;;;;;;;47.55;19.13;;;12.40;85.30;;;;;;5132782;28;20076;-68
2022/04/14 04:47:12;;;;;;;58.85;19.10;;;12.40;85.50;;;;;;5132932;28;20070;-67
2022/04/14 04:49:38;;;;;;;45.35;18.92;;;12.40;85.60;;;;;;5133799;28;20527;-68
2022/04/14 04:52:04;;;;;;;46.33;19.40;;;12.30;85.30;;;;;;5133629;28;20044;-68
2022/04/14 04:54:29;;;;;;;46.53;19.20;;;12.20;85.20;;;;;;5133706;28;20027;-68
2022/04/14 04:56:55;;;;;;;49.58;20.10;;;12.10;85.50;;;;;;5133700;28;20032;-68
2022/04/14 04:59:21;;;;;;;50.15;19.42;;;12.10;85.70;;;;;;5133694;28;20031;-68
2022/04/14 05:01:46;;;;;;;56.15;19.83;;;12.00;85.70;;;;;;5133648;28;20036;-67
2022/04/14 05:04:12;;;;;;;44.30;19.23;;;11.90;86.30;;;;;;5133601;28;20028;-68
2022/04/14 05:06:39;;;;;;;70.65;19.27;;;11.90;86.50;;;;;;5133590;28;20095;-68
2022/04/14 05:09:05;;;;;;;38.45;20.20;;;11.80;86.70;;;;;;5133512;28;20022;-68
2022/04/14 05:11:30;;;;;;;44.38;19.60;;;11.80;86.70;;;;;;5133476;28;20031;-68
2022/04/14 05:14:09;;;;;;;57.85;21.95;;;11.90;86.80;;;;;;5133607;28;20047;-68
2022/04/14 05:16:41;;;;;;;45.92;19.50;;;11.90;87.00;;;;;;5133791;28;20019;-68
2022/04/14 05:19:07;;;;;;;51.15;20.45;;;12.00;86.90;;;;;;5133579;28;20019;-68
2022/04/14 05:21:32;;;;;;;60.25;20.85;;;12.00;86.60;;;;;;5133436;28;20027;-68
2022/04/14 05:23:58;;;;;;;49.22;21.25;;;12.00;86.80;;;;;;5133428;28;20107;-68
2022/04/14 05:26:23;;;;;;;51.97;20.33;;;11.90;86.70;;;;;;5133397;28;20035;-68
2022/04/14 05:28:49;;;;;;;38.90;20.63;;;11.90;86.70;;;;;;5133280;28;20035;-67
2022/04/14 05:31:15;;;;;;;42.63;20.05;;;11.80;86.90;;;;;;5133312;28;20032;-67
2022/04/14 05:33:40;;;;;;;51.20;21.20;;;11.80;87.20;;;;;;5136804;28;20019;-68
2022/04/14 05:36:06;;;;;;;50.60;19.52;;;11.80;87.50;;;;;;5136238;28;20030;-67
2022/04/14 05:38:32;;;;;;;62.92;20.90;;;11.90;87.10;;;;;;5137238;28;20024;-68
2022/04/14 05:40:57;;;;;;;40.00;20.30;;;11.90;86.70;;;;;;5137136;28;20032;-67
2022/04/14 05:43:28;;;;;;;37.40;20.90;;;11.90;86.40;;;;;;5136913;28;20062;-68
2022/04/14 05:45:54;;;;;;;37.35;21.25;;;11.90;86.40;;;;;;5137108;28;20032;-67
2022/04/14 05:48:20;;;;;;;37.25;19.80;;;12.00;86.50;;;;;;5137024;28;20053;-67
2022/04/14 05:50:47;;;;;;;34.47;18.85;;;12.10;86.40;;;;;;5137023;28;20035;-67
2022/04/14 05:53:13;;;;;;;36.50;19.83;;;12.10;87.10;;;;;;5136938;28;20023;-68
2022/04/14 05:55:44;;;;;;;32.92;19.15;;;12.10;86.00;;;;;;5136834;28;20015;-67
2022/04/14 05:58:10;;;;;;;35.83;19.65;;;12.10;86.00;;;;;;5135855;28;20023;-67
2022/04/14 06:00:37;;;;;;;65.20;21.13;;;12.10;85.90;;;;;;5136827;28;20031;-67
2022/04/14 06:03:03;;;;;;;36.63;20.38;;;12.10;85.80;;;;;;5135725;28;20042;-67
2022/04/14 06:05:32;;;;;;;39.88;21.35;;;12.10;85.70;;;;;;5136583;28;20032;-67
2022/04/14 06:07:59;;;;;;;41.40;22.15;;;12.20;85.70;;;;;;5136672;28;20031;-68
2022/04/14 06:10:26;;;;;;;47.33;23.02;;;12.20;86.00;;;;;;5136517;28;20023;-68
2022/04/14 06:12:54;;;;;;;39.95;20.95;;;12.20;86.10;;;;;;5136552;28;20043;-68
2022/04/14 06:15:20;;;;;;;43.55;22.00;;;12.20;86.40;;;;;;5136488;28;20031;-67
2022/04/14 06:17:46;;;;;;;40.45;21.13;;;12.20;86.60;;;;;;5136559;28;20019;-67
2022/04/14 06:20:13;;;;;;;42.25;22.95;;;12.20;87.60;;;;;;5135577;28;20030;-67
2022/04/14 06:22:42;;;;;;;42.78;22.98;;;12.20;87.80;;;;;;5136362;28;20020;-68
2022/04/14 06:25:13;;;;;;;41.03;22.10;;;12.20;87.00;;;;;;5136343;27;20418;-67
2022/04/14 06:27:47;;;;;;;40.88;22.25;;;12.20;87.90;;;;;;5136275;28;20034;-67
2022/04/14 06:30:15;;;;;;;39.78;22.67;;;12.30;88.00;;;;;;5136228;28;20031;-67
2022/04/14 06:32:41;;;;;;;42.40;23.05;;;12.30;88.10;;;;;;5135325;28;20020;-67
2022/04/14 06:35:08;;;;;;;43.45;22.80;;;12.30;88.90;;;;;;5136170;28;20016;-67
2022/04/14 06:37:35;;;;;;;42.92;24.27;;;12.30;88.90;;;;;;5136010;28;20020;-67
2022/04/14 06:40:02;;;;;;;42.47;23.83;;;12.30;89.70;;;;;;5136048;28;20020;-67
2022/04/14 06:42:28;;;;;;;46.17;24.95;;;12.40;89.60;;;;;;5135791;28;20039;-67
2022/04/14 06:44:58;;;;;;;47.42;24.90;;;12.40;89.60;;;;;;5134681;28;20024;-67
2022/04/14 06:47:24;;;;;;;44.13;22.88;;;12.50;89.10;;;;;;5135963;28;20057;-67
2022/04/14 06:49:50;;;;;;;45.78;23.55;;;12.50;89.20;;;;;;5135889;28;20024;-67
2022/04/14 06:52:17;;;;;;;44.65;24.73;;;12.50;89.30;;;;;;5135801;28;20529;-67
2022/04/14 06:54:43;;;;;;;46.17;25.23;;;12.60;89.00;;;;;;5135764;28;20071;-67
2022/04/14 06:57:09;;;;;;;47.10;25.02;;;12.60;89.00;;;;;;5135692;28;20027;-67
2022/04/14 06:59:34;;;;;;;47.42;25.38;;;12.70;89.50;;;;;;5135712;28;20040;-67
2022/04/14 07:02:00;;;;;;;49.22;25.95;;;12.80;89.10;;;;;;5135566;28;20038;-68
2022/04/14 07:04:27;;;;;;;42.20;24.33;;;12.80;89.90;;;;;;5135561;28;20042;-67
2022/04/14 07:06:52;;;;;;;47.42;25.83;;;12.90;89.40;;;;;;5135700;28;20020;-67
2022/04/14 07:09:18;;;;;;;41.13;23.60;;;12.90;89.10;;;;;;5135614;28;20036;-67
2022/04/14 07:11:44;;;;;;;39.83;23.40;;;13.00;89.00;;;;;;5135409;28;20024;-67
2022/04/14 07:14:09;;;;;;;43.53;24.10;;;13.00;88.50;;;;;;5135311;28;20031;-67
2022/04/14 07:16:35;;;;;;;39.95;23.27;;;13.10;88.50;;;;;;5135312;28;20024;-67
2022/04/14 07:19:01;;;;;;;42.67;22.98;;;13.10;88.60;;;;;;5134216;28;20039;-67
2022/04/14 07:21:26;;;;;;;39.50;23.08;;;13.10;89.30;;;;;;5135179;28;20024;-67
2022/04/14 07:23:52;;;;;;;33.38;19.92;;;13.20;88.90;;;;;;5135169;28;20179;-68
2022/04/14 07:26:17;;;;;;;27.52;17.10;;;13.20;88.50;;;;;;5135131;28;20038;-67
2022/04/14 07:28:43;;;;;;;31.92;18.77;;;13.30;87.80;;;;;;5134977;28;20051;-67
2022/04/14 07:31:09;;;;;;;30.52;18.70;;;13.40;87.50;;;;;;5135081;28;20035;-68
2022/04/14 07:33:36;;;;;;;29.20;17.92;;;13.50;86.90;;;;;;5134989;28;20019;-68
2022/04/14 07:36:02;;;;;;;30.92;18.40;;;13.50;86.50;;;;;;5135093;28;20588;-68
2022/04/14 07:38:28;;;;;;;27.65;18.23;;;13.60;86.20;;;;;;5134900;28;20047;-68
2022/04/14 07:40:56;;;;;;;28.30;17.52;;;13.70;86.10;;;;;;5134784;28;20054;-68
2022/04/14 07:43:22;;;;;;;23.67;15.30;;;13.70;85.80;;;;;;5134661;28;20218;-68
2022/04/14 07:45:48;;;;;;;27.45;16.75;;;13.80;85.20;;;;;;5134735;28;20028;-68
2022/04/14 07:48:13;;;;;;;28.38;17.13;;;13.90;85.20;;;;;;5134686;28;20055;-68
2022/04/14 07:50:39;;;;;;;28.67;16.20;;;14.00;85.10;;;;;;5134583;28;20031;-69
2022/04/14 07:53:05;;;;;;;27.10;17.42;;;14.10;84.90;;;;;;5134618;28;20035;-69
2022/04/14 07:55:32;;;;;;;25.75;15.32;;;14.10;84.50;;;;;;5134160;28;20053;-69
2022/04/14 07:58:04;;;;;;;27.30;17.00;;;14.20;84.00;;;;;;5134532;28;20024;-68
2022/04/14 08:00:30;;;;;;;22.65;15.23;;;14.30;83.40;;;;;;5134551;28;20027;-68
2022/04/14 08:02:58;;;;;;;26.10;15.93;;;14.40;83.00;;;;;;5134457;28;20043;-68
2022/04/14 08:05:36;;;;;;;24.83;15.52;;;14.50;83.10;;;;;;5134435;28;20027;-68
2022/04/14 08:08:07;;;;;;;25.27;14.77;;;14.60;82.60;;;;;;5134373;28;20034;-68
2022/04/14 08:10:33;;;;;;;23.60;15.20;;;14.60;82.50;;;;;;5134228;28;20038;-68
2022/04/14 08:12:59;;;;;;;23.90;15.82;;;14.80;82.10;;;;;;5134373;28;20019;-68
2022/04/14 08:15:26;;;;;;;23.35;15.05;;;14.80;81.30;;;;;;5134244;28;20027;-67
2022/04/14 08:17:51;;;;;;;24.85;14.93;;;14.90;80.50;;;;;;5134188;28;20022;-68
2022/04/14 08:20:18;;;;;;;25.83;15.95;;;15.00;80.40;;;;;;5134148;28;20051;-68
2022/04/14 08:22:47;;;;;;;21.77;14.25;;;15.10;80.50;;;;;;5134232;28;20073;-68
2022/04/14 08:25:15;;;;;;;22.23;15.48;;;15.20;80.30;;;;;;5133089;28;20047;-68
2022/04/14 08:27:41;;;;;;;24.15;14.60;;;15.30;79.90;;;;;;5133973;28;20047;-68
2022/04/14 08:30:08;;;;;;;21.27;13.88;;;15.40;79.90;;;;;;5133940;28;20024;-68
2022/04/14 08:32:34;;;;;;;21.95;14.75;;;15.50;79.10;;;;;;5133983;28;20080;-68
2022/04/14 08:35:03;;;;;;;22.17;13.65;;;15.50;80.10;;;;;;5133961;28;20058;-68
2022/04/14 08:37:29;;;;;;;22.60;14.60;;;15.60;78.70;;;;;;5133910;28;20016;-68
2022/04/14 08:39:56;;;;;;;22.67;15.10;;;15.60;79.10;;;;;;5133859;28;20046;-68
2022/04/14 08:42:28;;;;;;;23.35;14.10;;;15.70;78.20;;;;;;5133663;28;20069;-68
2022/04/14 08:45:04;;;;;;;20.98;13.65;;;15.80;77.10;;;;;;5134000;28;20020;-68
2022/04/14 08:47:30;;;;;;;18.58;12.65;;;15.80;76.80;;;;;;5133799;28;20049;-68
2022/04/14 08:49:57;;;;;;;19.83;12.90;;;15.90;76.80;;;;;;5133748;28;20083;-68
2022/04/14 08:52:25;;;;;;;17.02;11.02;;;16.00;76.90;;;;;;5132614;28;20023;-68
2022/04/14 08:54:52;;;;;;;16.55;9.75;;;16.20;75.20;;;;;;5132599;28;20058;-68
2022/04/14 08:57:18;;;;;;;17.45;10.75;;;16.20;73.20;;;;;;5132668;28;20095;-68
2022/04/14 08:59:45;;;;;;;17.17;10.65;;;16.20;73.50;;;;;;5133689;28;20012;-68
2022/04/14 09:02:15;;;;;;;17.15;10.93;;;16.40;74.30;;;;;;5133635;28;20023;-68
2022/04/14 09:04:41;;;;;;;16.40;10.65;;;16.50;73.60;;;;;;5133715;28;20042;-68
2022/04/14 09:07:08;;;;;;;13.10;8.95;;;16.60;73.50;;;;;;5134646;28;20020;-68
2022/04/14 09:09:34;;;;;;;10.93;7.47;;;16.70;73.50;;;;;;5137768;28;20035;-68
2022/04/14 09:12:00;;;;;;;13.75;7.82;;;16.80;71.70;;;;;;5137737;28;20035;-68
2022/04/14 09:14:25;;;;;;;11.80;7.95;;;16.90;70.80;;;;;;5137729;28;20042;-68
2022/04/14 09:16:51;;;;;;;11.18;7.60;;;17.00;70.10;;;;;;5137662;28;20020;-68
2022/04/14 09:19:17;;;;;;;10.32;6.68;;;17.10;69.40;;;;;;5137543;28;20045;-68
2022/04/14 09:22:07;;;;;;;10.82;7.55;;;17.20;68.70;;;;;;5136620;28;20024;-68
2022/04/14 09:24:48;;;;;;;11.18;7.65;;;17.20;68.10;;;;;;5137535;28;20472;-68
2022/04/14 09:27:39;;;;;;;11.32;7.75;;;17.30;68.60;;;;;;5137520;28;20039;-68
2022/04/14 09:30:07;;;;;;;10.70;6.63;;;17.50;68.80;;;;;;5137550;28;20024;-68
2022/04/14 09:32:39;;;;;;;11.40;6.97;;;17.60;69.20;;;;;;5137492;28;20036;-68
2022/04/14 09:35:16;;;;;;;10.88;6.32;;;17.80;69.00;;;;;;5137324;28;20030;-68
2022/04/14 09:37:42;;;;;;;11.43;6.82;;;17.90;67.30;;;;;;5137288;28;20076;-68
2022/04/14 09:40:09;;;;;;;10.70;6.07;;;17.80;65.70;;;;;;5137208;28;20053;-68
2022/04/14 09:42:39;;;;;;;9.55;5.88;;;17.70;66.00;;;;;;5136994;28;20055;-68
2022/04/14 09:45:19;;;;;;;10.10;7.20;;;17.80;66.50;;;;;;5137152;28;20030;-68
2022/04/14 09:47:45;;;;;;;9.63;5.85;;;17.90;66.20;;;;;;5137075;28;20019;-68
2022/04/14 09:50:35;;;;;;;9.00;5.60;;;18.00;64.00;;;;;;5136942;28;20015;-68
2022/04/14 09:53:05;;;;;;;10.38;5.78;;;18.10;64.20;;;;;;5137161;28;20030;-68
2022/04/14 09:55:32;;;;;;;10.10;6.45;;;18.10;64.40;;;;;;5136952;27;20020;-68
2022/04/14 09:58:19;;;;;;;9.77;6.07;;;18.20;63.70;;;;;;5136908;28;20083;-68
2022/04/14 10:00:46;;;;;;;9.18;5.78;;;18.30;61.80;;;;;;5136866;28;20026;-68
2022/04/14 10:03:26;;;;;;;9.77;6.07;;;18.30;64.10;;;;;;5136788;28;20016;-68
2022/04/14 10:05:54;;;;;;;8.35;5.15;;;18.50;63.10;;;;;;5136698;28;20056;-68
2022/04/14 10:08:22;;;;;;;7.13;4.82;;;18.60;62.30;;;;;;5136687;27;20028;-68
2022/04/14 10:10:49;;;;;;;7.57;5.05;;;18.50;60.50;;;;;;5136541;28;20092;-68
2022/04/14 10:13:18;;;;;;;6.88;5.00;;;18.50;60.70;;;;;;5136578;28;20031;-68
2022/04/14 10:15:46;;;;;;;8.07;4.80;;;18.50;61.10;;;;;;5135504;28;20039;-68
2022/04/14 10:18:16;;;;;;;6.43;4.75;;;18.50;60.00;;;;;;5136145;28;20054;-68
2022/04/14 10:20:44;;;;;;;5.53;2.85;;;18.50;59.00;;;;;;5136459;28;20024;-68
2022/04/14 10:23:12;;;;;;;4.90;3.03;;;18.60;56.90;;;;;;5136389;27;20038;-68
2022/04/14 10:25:39;;;;;;;6.70;3.65;;;18.70;55.40;;;;;;5136369;28;20048;-68
2022/04/14 10:28:14;;;;;;;5.45;3.33;;;18.70;56.20;;;;;;5136200;28;20024;-68
2022/04/14 10:30:44;;;;;;;5.05;2.88;;;18.70;56.70;;;;;;5136371;28;20402;-68
2022/04/14 10:33:12;;;;;;;4.72;3.10;;;18.80;56.60;;;;;;5136354;28;20015;-68
2022/04/14 10:35:37;;;;;;;4.93;3.17;;;18.90;54.80;;;;;;5136178;28;20107;-68
2022/04/14 10:38:29;;;;;;;6.28;3.28;;;18.90;55.70;;;;;;5136118;28;20016;-68
2022/04/14 10:41:17;;;;;;;5.13;3.30;;;19.00;55.20;;;;;;5136121;28;20039;-68
2022/04/14 10:43:45;;;;;;;4.38;2.95;;;18.90;54.00;;;;;;5135832;28;20173;-68
2022/04/14 10:46:14;;;;;;;6.53;3.33;;;19.10;55.10;;;;;;5136016;28;20039;-68
2022/04/14 10:48:41;;;;;;;6.50;3.95;;;19.00;55.80;;;;;;5135873;28;20016;-68
2022/04/14 10:51:20;;;;;;;6.57;3.90;;;18.90;56.40;;;;;;5135804;28;20028;-68
2022/04/14 10:53:50;;;;;;;3.97;2.55;;;19.00;53.60;;;;;;5135822;28;20030;-68
2022/04/14 10:56:34;;;;;;;3.95;2.40;;;19.00;52.70;;;;;;5135776;28;20030;-68
2022/04/14 10:59:41;;;;;;;3.13;1.98;;;19.20;53.60;;;;;;5135645;28;20023;-68
2022/04/14 11:02:07;;;;;;;4.15;2.10;;;19.30;52.90;;;;;;5135550;28;20023;-68
2022/04/14 11:04:41;;;;;;;5.20;2.80;;;19.50;51.90;;;;;;5135553;28;20062;-68
2022/04/14 11:07:21;;;;;;;3.90;2.17;;;19.60;53.80;;;;;;5135650;28;20028;-68
2022/04/14 11:09:58;;;;;;;3.17;2.10;;;19.70;53.40;;;;;;5135492;28;20030;-68
2022/04/14 11:12:50;;;;;;;4.38;2.35;;;19.80;52.20;;;;;;5135390;28;20019;-68
2022/04/14 11:15:32;;;;;;;3.50;2.20;;;19.80;51.90;;;;;;5135278;28;20030;-68
2022/04/14 11:18:04;;;;;;;4.75;2.28;;;19.90;53.00;;;;;;5135492;28;20102;-68
2022/04/14 11:20:37;;;;;;;4.28;2.35;;;19.80;51.40;;;;;;5135235;28;20030;-68
2022/04/14 11:23:15;;;;;;;5.25;2.58;;;19.80;53.00;;;;;;5135366;28;20027;-68
2022/04/14 11:25:44;;;;;;;5.22;2.30;;;20.10;52.70;;;;;;5135176;28;20023;-68
2022/04/14 11:28:33;;;;;;;5.35;2.50;;;20.10;52.10;;;;;;5135292;28;20024;-68
2022/04/14 11:31:17;;;;;;;3.88;2.40;;;20.10;52.50;;;;;;5134353;28;20027;-68
2022/04/14 11:33:44;;;;;;;4.18;2.50;;;20.30;51.20;;;;;;5135068;28;20027;-68
2022/04/14 11:36:16;;;;;;;5.00;2.42;;;20.20;50.50;;;;;;5134967;28;20110;-68
2022/04/14 11:38:59;;;;;;;3.58;2.45;;;20.40;51.50;;;;;;5134912;28;20042;-68
2022/04/14 11:41:53;;;;;;;6.18;3.65;;;20.60;50.40;;;;;;5135057;28;20028;-68
2022/04/14 11:44:32;;;;;;;10.05;5.40;;;20.50;51.40;;;;;;5132399;28;20055;-68
2022/04/14 11:47:00;;;;;;;8.70;5.00;;;20.50;53.70;;;;;;5134943;28;20020;-68
2022/04/14 11:49:30;;;;;;;10.88;5.35;;;20.40;52.90;;;;;;5134722;28;20019;-68
2022/04/14 11:51:58;;;;;;;8.00;4.22;;;20.20;53.10;;;;;;5134740;28;20080;-68
2022/04/14 11:54:27;;;;;;;9.55;4.88;;;20.20;54.50;;;;;;5134644;28;20019;-68
2022/04/14 11:56:55;;;;;;;9.15;3.90;;;20.10;53.60;;;;;;5134542;28;20054;-68
2022/04/14 11:59:30;;;;;;;6.07;3.88;;;20.10;54.10;;;;;;5134578;28;20016;-68
2022/04/14 12:02:02;;;;;;;10.30;4.43;;;20.00;54.70;;;;;;5134665;28;20028;-68
2022/04/14 12:04:32;;;;;;;8.68;4.78;;;20.00;55.20;;;;;;5134656;28;20023;-68
2022/04/14 12:06:58;;;;;;;8.93;5.30;;;19.90;55.50;;;;;;5134439;28;20024;-68
2022/04/14 12:09:24;;;;;;;10.80;5.78;;;19.80;55.70;;;;;;5134453;28;20026;-68
2022/04/14 12:11:51;;;;;;;12.05;5.65;;;19.80;56.00;;;;;;5134393;28;20023;-68
2022/04/14 12:14:17;;;;;;;8.38;5.03;;;19.80;56.70;;;;;;5134284;28;20090;-69
2022/04/14 12:16:51;;;;;;;10.65;5.65;;;19.80;56.70;;;;;;5134194;28;20027;-68
2022/04/14 12:19:17;;;;;;;10.18;5.35;;;19.80;56.80;;;;;;5134220;28;20047;-68
2022/04/14 12:21:43;;;;;;;10.05;5.65;;;19.80;56.80;;;;;;5134138;28;20024;-68
2022/04/14 12:24:08;;;;;;;10.50;5.70;;;19.90;56.60;;;;;;5134065;28;20031;-68
2022/04/14 12:26:37;;;;;;;10.38;5.35;;;19.90;56.40;;;;;;5134080;28;20022;-69
2022/04/14 12:29:08;;;;;;;8.85;5.38;;;19.90;56.50;;;;;;5133902;28;20024;-68
2022/04/14 12:31:34;;;;;;;9.13;5.90;;;19.90;56.30;;;;;;5134110;28;20030;-68
2022/04/14 12:34:00;;;;;;;11.85;6.70;;;19.80;56.90;;;;;;5133978;28;20036;-68
2022/04/14 12:36:37;;;;;;;11.90;6.82;;;19.90;57.30;;;;;;5133912;28;20016;-68